sensor_id;sensor_type;location;lat;lon;timestamp;P1;durP1;ratioP1;P2;durP2;ratioP2
21030;SDS011;61072;47.808;7.636;2022-08-26T00:01:50;3.15;;;1.85;;
21030;SDS011;61072;47.808;7.636;2022-08-26T00:04:19;2.55;;;1.65;;
21030;SDS011;61072;47.808;7.636;2022-08-26T00:06:46;3.00;;;1.60;;
21030;SDS011;61072;47.808;7.636;2022-08-26T00:09:13;8.02;;;2.05;;
21030;SDS011;61072;47.808;7.636;2022-08-26T00:11:42;1.73;;;1.50;;
21030;SDS011;61072;47.808;7.636;2022-08-26T00:14:09;2.65;;;1.55;;
21030;SDS011;61072;47.808;7.636;2022-08-26T00:16:36;3.50;;;1.73;;
21030;SDS011;61072;47.808;7.636;2022-08-26T00:19:12;6.22;;;1.88;;
21030;SDS011;61072;47.808;7.636;2022-08-26T00:21:39;4.07;;;2.13;;
21030;SDS011;61072;47.808;7.636;2022-08-26T00:24:06;4.30;;;2.05;;
21030;SDS011;61072;47.808;7.636;2022-08-26T00:26:33;3.17;;;1.80;;
21030;SDS011;61072;47.808;7.636;2022-08-26T00:29:00;3.47;;;1.70;;
21030;SDS011;61072;47.808;7.636;2022-08-26T00:31:27;5.10;;;2.17;;
21030;SDS011;61072;47.808;7.636;2022-08-26T00:33:56;6.00;;;1.70;;
21030;SDS011;61072;47.808;7.636;2022-08-26T00:36:23;3.17;;;1.75;;
21030;SDS011;61072;47.808;7.636;2022-08-26T00:38:55;4.22;;;1.45;;
21030;SDS011;61072;47.808;7.636;2022-08-26T00:41:23;3.30;;;1.60;;
21030;SDS011;61072;47.808;7.636;2022-08-26T00:43:50;2.67;;;1.75;;
21030;SDS011;61072;47.808;7.636;2022-08-26T00:46:18;2.40;;;1.50;;
21030;SDS011;61072;47.808;7.636;2022-08-26T00:48:58;5.13;;;1.85;;
21030;SDS011;61072;47.808;7.636;2022-08-26T00:51:40;3.10;;;1.77;;
21030;SDS011;61072;47.808;7.636;2022-08-26T00:54:17;2.50;;;1.48;;
21030;SDS011;61072;47.808;7.636;2022-08-26T00:56:54;1.98;;;1.75;;
21030;SDS011;61072;47.808;7.636;2022-08-26T00:59:25;4.95;;;1.70;;
21030;SDS011;61072;47.808;7.636;2022-08-26T01:01:58;6.70;;;1.83;;
21030;SDS011;61072;47.808;7.636;2022-08-26T01:04:28;3.45;;;2.05;;
21030;SDS011;61072;47.808;7.636;2022-08-26T01:06:57;3.50;;;1.73;;
21030;SDS011;61072;47.808;7.636;2022-08-26T01:09:24;4.32;;;1.88;;
21030;SDS011;61072;47.808;7.636;2022-08-26T01:11:52;4.82;;;1.60;;
21030;SDS011;61072;47.808;7.636;2022-08-26T01:14:22;5.88;;;1.80;;
21030;SDS011;61072;47.808;7.636;2022-08-26T01:16:51;4.65;;;2.13;;
21030;SDS011;61072;47.808;7.636;2022-08-26T01:19:22;4.63;;;1.75;;
21030;SDS011;61072;47.808;7.636;2022-08-26T01:22:04;5.57;;;1.90;;
21030;SDS011;61072;47.808;7.636;2022-08-26T01:24:39;2.50;;;2.00;;
21030;SDS011;61072;47.808;7.636;2022-08-26T01:27:07;2.85;;;1.90;;
21030;SDS011;61072;47.808;7.636;2022-08-26T01:29:36;4.90;;;2.00;;
21030;SDS011;61072;47.808;7.636;2022-08-26T01:32:06;3.08;;;2.10;;
21030;SDS011;61072;47.808;7.636;2022-08-26T01:34:36;6.82;;;1.83;;
21030;SDS011;61072;47.808;7.636;2022-08-26T01:37:12;4.13;;;1.90;;
21030;SDS011;61072;47.808;7.636;2022-08-26T01:39:41;3.22;;;2.10;;
21030;SDS011;61072;47.808;7.636;2022-08-26T01:42:10;5.18;;;1.80;;
21030;SDS011;61072;47.808;7.636;2022-08-26T01:44:45;3.42;;;1.90;;
21030;SDS011;61072;47.808;7.636;2022-08-26T01:47:17;4.63;;;2.13;;
21030;SDS011;61072;47.808;7.636;2022-08-26T01:49:47;5.13;;;1.73;;
21030;SDS011;61072;47.808;7.636;2022-08-26T01:52:23;2.40;;;1.75;;
21030;SDS011;61072;47.808;7.636;2022-08-26T01:54:53;2.97;;;2.10;;
21030;SDS011;61072;47.808;7.636;2022-08-26T01:57:22;6.53;;;2.40;;
21030;SDS011;61072;47.808;7.636;2022-08-26T01:59:50;4.07;;;2.50;;
21030;SDS011;61072;47.808;7.636;2022-08-26T02:02:20;2.45;;;2.15;;
21030;SDS011;61072;47.808;7.636;2022-08-26T02:04:50;5.63;;;2.85;;
21030;SDS011;61072;47.808;7.636;2022-08-26T02:07:22;4.13;;;2.45;;
21030;SDS011;61072;47.808;7.636;2022-08-26T02:09:51;5.72;;;2.67;;
21030;SDS011;61072;47.808;7.636;2022-08-26T02:12:18;3.33;;;2.47;;
21030;SDS011;61072;47.808;7.636;2022-08-26T02:14:49;4.05;;;2.45;;
21030;SDS011;61072;47.808;7.636;2022-08-26T02:17:22;3.67;;;2.83;;
21030;SDS011;61072;47.808;7.636;2022-08-26T02:19:53;5.72;;;2.28;;
21030;SDS011;61072;47.808;7.636;2022-08-26T02:22:22;3.13;;;2.53;;
21030;SDS011;61072;47.808;7.636;2022-08-26T02:24:57;3.03;;;2.30;;
21030;SDS011;61072;47.808;7.636;2022-08-26T02:27:29;6.78;;;2.30;;
21030;SDS011;61072;47.808;7.636;2022-08-26T02:32:35;3.65;;;2.40;;
21030;SDS011;61072;47.808;7.636;2022-08-26T02:35:05;3.13;;;2.20;;
21030;SDS011;61072;47.808;7.636;2022-08-26T02:37:34;3.50;;;2.35;;
21030;SDS011;61072;47.808;7.636;2022-08-26T02:40:01;3.03;;;2.22;;
21030;SDS011;61072;47.808;7.636;2022-08-26T02:42:30;3.30;;;2.60;;
21030;SDS011;61072;47.808;7.636;2022-08-26T02:44:57;3.70;;;2.10;;
21030;SDS011;61072;47.808;7.636;2022-08-26T02:47:25;3.92;;;2.55;;
21030;SDS011;61072;47.808;7.636;2022-08-26T02:49:54;2.80;;;2.50;;
21030;SDS011;61072;47.808;7.636;2022-08-26T02:52:21;2.90;;;2.60;;
21030;SDS011;61072;47.808;7.636;2022-08-26T02:54:48;4.35;;;2.53;;
21030;SDS011;61072;47.808;7.636;2022-08-26T02:57:15;3.17;;;2.20;;
21030;SDS011;61072;47.808;7.636;2022-08-26T02:59:42;4.32;;;2.35;;
21030;SDS011;61072;47.808;7.636;2022-08-26T03:02:09;4.68;;;2.33;;
21030;SDS011;61072;47.808;7.636;2022-08-26T03:04:37;3.33;;;2.30;;
21030;SDS011;61072;47.808;7.636;2022-08-26T03:07:05;7.22;;;2.80;;
21030;SDS011;61072;47.808;7.636;2022-08-26T03:09:32;6.50;;;3.13;;
21030;SDS011;61072;47.808;7.636;2022-08-26T03:11:58;2.60;;;2.40;;
21030;SDS011;61072;47.808;7.636;2022-08-26T03:14:25;4.55;;;2.53;;
21030;SDS011;61072;47.808;7.636;2022-08-26T03:16:52;5.22;;;3.10;;
21030;SDS011;61072;47.808;7.636;2022-08-26T03:19:21;5.70;;;2.92;;
21030;SDS011;61072;47.808;7.636;2022-08-26T03:24:23;2.97;;;2.40;;
21030;SDS011;61072;47.808;7.636;2022-08-26T03:26:50;2.97;;;2.70;;
21030;SDS011;61072;47.808;7.636;2022-08-26T03:29:18;7.35;;;2.78;;
21030;SDS011;61072;47.808;7.636;2022-08-26T03:32:24;4.80;;;3.05;;
21030;SDS011;61072;47.808;7.636;2022-08-26T03:34:52;6.10;;;3.22;;
21030;SDS011;61072;47.808;7.636;2022-08-26T03:37:19;5.50;;;2.53;;
21030;SDS011;61072;47.808;7.636;2022-08-26T03:39:46;3.80;;;2.85;;
21030;SDS011;61072;47.808;7.636;2022-08-26T03:42:14;3.75;;;3.15;;
21030;SDS011;61072;47.808;7.636;2022-08-26T03:44:40;5.30;;;2.60;;
21030;SDS011;61072;47.808;7.636;2022-08-26T03:47:08;4.10;;;2.85;;
21030;SDS011;61072;47.808;7.636;2022-08-26T03:49:35;5.25;;;3.22;;
21030;SDS011;61072;47.808;7.636;2022-08-26T03:52:02;4.90;;;3.40;;
21030;SDS011;61072;47.808;7.636;2022-08-26T03:54:29;3.65;;;3.08;;
21030;SDS011;61072;47.808;7.636;2022-08-26T03:56:56;4.93;;;3.05;;
21030;SDS011;61072;47.808;7.636;2022-08-26T03:59:23;3.88;;;2.70;;
21030;SDS011;61072;47.808;7.636;2022-08-26T04:01:50;5.47;;;2.75;;
21030;SDS011;61072;47.808;7.636;2022-08-26T04:04:17;5.93;;;3.40;;
21030;SDS011;61072;47.808;7.636;2022-08-26T04:06:48;3.85;;;2.70;;
21030;SDS011;61072;47.808;7.636;2022-08-26T04:09:18;5.53;;;2.88;;
21030;SDS011;61072;47.808;7.636;2022-08-26T04:11:46;5.03;;;2.97;;
21030;SDS011;61072;47.808;7.636;2022-08-26T04:14:17;9.07;;;2.95;;
21030;SDS011;61072;47.808;7.636;2022-08-26T04:16:46;4.57;;;2.67;;
21030;SDS011;61072;47.808;7.636;2022-08-26T04:19:13;5.50;;;3.10;;
21030;SDS011;61072;47.808;7.636;2022-08-26T04:21:42;6.00;;;2.95;;
21030;SDS011;61072;47.808;7.636;2022-08-26T04:24:11;2.25;;;2.05;;
21030;SDS011;61072;47.808;7.636;2022-08-26T04:26:38;4.00;;;2.83;;
21030;SDS011;61072;47.808;7.636;2022-08-26T04:29:18;3.10;;;2.80;;
21030;SDS011;61072;47.808;7.636;2022-08-26T04:31:48;7.35;;;3.10;;
21030;SDS011;61072;47.808;7.636;2022-08-26T04:34:21;3.80;;;2.70;;
21030;SDS011;61072;47.808;7.636;2022-08-26T04:36:53;3.15;;;2.70;;
21030;SDS011;61072;47.808;7.636;2022-08-26T04:39:21;4.25;;;2.60;;
21030;SDS011;61072;47.808;7.636;2022-08-26T04:41:47;3.28;;;2.90;;
21030;SDS011;61072;47.808;7.636;2022-08-26T04:44:16;4.68;;;3.13;;
21030;SDS011;61072;47.808;7.636;2022-08-26T04:46:43;4.55;;;2.85;;
21030;SDS011;61072;47.808;7.636;2022-08-26T04:49:10;4.18;;;3.10;;
21030;SDS011;61072;47.808;7.636;2022-08-26T04:51:38;5.45;;;2.70;;
21030;SDS011;61072;47.808;7.636;2022-08-26T04:54:05;4.38;;;2.78;;
21030;SDS011;61072;47.808;7.636;2022-08-26T04:56:34;4.28;;;3.55;;
21030;SDS011;61072;47.808;7.636;2022-08-26T04:59:03;7.75;;;3.30;;
21030;SDS011;61072;47.808;7.636;2022-08-26T05:01:45;3.20;;;2.67;;
21030;SDS011;61072;47.808;7.636;2022-08-26T05:04:15;5.45;;;3.55;;
21030;SDS011;61072;47.808;7.636;2022-08-26T05:06:44;3.33;;;2.42;;
21030;SDS011;61072;47.808;7.636;2022-08-26T05:09:12;4.80;;;2.80;;
21030;SDS011;61072;47.808;7.636;2022-08-26T05:11:40;3.97;;;2.42;;
21030;SDS011;61072;47.808;7.636;2022-08-26T05:14:07;3.70;;;2.90;;
21030;SDS011;61072;47.808;7.636;2022-08-26T05:16:34;3.08;;;2.45;;
21030;SDS011;61072;47.808;7.636;2022-08-26T05:19:01;4.43;;;2.90;;
21030;SDS011;61072;47.808;7.636;2022-08-26T05:21:28;3.90;;;2.72;;
21030;SDS011;61072;47.808;7.636;2022-08-26T05:23:55;3.58;;;2.60;;
21030;SDS011;61072;47.808;7.636;2022-08-26T05:26:23;5.10;;;2.58;;
21030;SDS011;61072;47.808;7.636;2022-08-26T05:28:52;6.47;;;2.30;;
21030;SDS011;61072;47.808;7.636;2022-08-26T05:31:25;3.55;;;2.60;;
21030;SDS011;61072;47.808;7.636;2022-08-26T05:33:54;4.57;;;2.60;;
21030;SDS011;61072;47.808;7.636;2022-08-26T05:36:23;3.38;;;2.33;;
21030;SDS011;61072;47.808;7.636;2022-08-26T05:38:53;4.13;;;3.03;;
21030;SDS011;61072;47.808;7.636;2022-08-26T05:46:28;5.20;;;2.40;;
21030;SDS011;61072;47.808;7.636;2022-08-26T05:48:55;5.97;;;2.38;;
21030;SDS011;61072;47.808;7.636;2022-08-26T05:51:23;4.13;;;2.70;;
21030;SDS011;61072;47.808;7.636;2022-08-26T05:53:51;4.50;;;2.45;;
21030;SDS011;61072;47.808;7.636;2022-08-26T05:56:20;7.20;;;2.30;;
21030;SDS011;61072;47.808;7.636;2022-08-26T05:58:53;5.47;;;2.58;;
21030;SDS011;61072;47.808;7.636;2022-08-26T06:01:24;3.50;;;2.65;;
21030;SDS011;61072;47.808;7.636;2022-08-26T06:03:53;4.82;;;2.30;;
21030;SDS011;61072;47.808;7.636;2022-08-26T06:06:26;6.25;;;2.75;;
21030;SDS011;61072;47.808;7.636;2022-08-26T06:11:24;5.90;;;2.38;;
21030;SDS011;61072;47.808;7.636;2022-08-26T06:13:52;2.88;;;2.45;;
21030;SDS011;61072;47.808;7.636;2022-08-26T06:16:28;3.58;;;2.25;;
21030;SDS011;61072;47.808;7.636;2022-08-26T06:18:55;3.88;;;2.53;;
21030;SDS011;61072;47.808;7.636;2022-08-26T06:21:29;2.65;;;2.15;;
21030;SDS011;61072;47.808;7.636;2022-08-26T06:23:58;4.57;;;2.88;;
21030;SDS011;61072;47.808;7.636;2022-08-26T06:26:53;8.98;;;2.08;;
21030;SDS011;61072;47.808;7.636;2022-08-26T06:29:22;4.03;;;2.30;;
21030;SDS011;61072;47.808;7.636;2022-08-26T06:31:51;4.88;;;2.35;;
21030;SDS011;61072;47.808;7.636;2022-08-26T06:34:21;2.55;;;2.25;;
21030;SDS011;61072;47.808;7.636;2022-08-26T06:36:55;3.35;;;2.20;;
21030;SDS011;61072;47.808;7.636;2022-08-26T06:39:23;2.72;;;2.45;;
21030;SDS011;61072;47.808;7.636;2022-08-26T06:41:50;3.63;;;2.40;;
21030;SDS011;61072;47.808;7.636;2022-08-26T06:44:17;2.83;;;2.40;;
21030;SDS011;61072;47.808;7.636;2022-08-26T06:46:46;9.70;;;2.50;;
21030;SDS011;61072;47.808;7.636;2022-08-26T06:49:16;3.85;;;2.42;;
21030;SDS011;61072;47.808;7.636;2022-08-26T06:51:51;2.38;;;2.17;;
21030;SDS011;61072;47.808;7.636;2022-08-26T06:54:18;5.15;;;2.80;;
21030;SDS011;61072;47.808;7.636;2022-08-26T06:56:45;2.60;;;2.15;;
21030;SDS011;61072;47.808;7.636;2022-08-26T06:59:13;5.10;;;2.55;;
21030;SDS011;61072;47.808;7.636;2022-08-26T07:01:41;3.83;;;2.30;;
21030;SDS011;61072;47.808;7.636;2022-08-26T07:04:10;6.80;;;2.03;;
21030;SDS011;61072;47.808;7.636;2022-08-26T07:06:41;8.90;;;2.50;;
21030;SDS011;61072;47.808;7.636;2022-08-26T07:09:12;2.70;;;1.92;;
21030;SDS011;61072;47.808;7.636;2022-08-26T07:11:39;3.50;;;2.20;;
21030;SDS011;61072;47.808;7.636;2022-08-26T07:14:06;5.20;;;2.20;;
21030;SDS011;61072;47.808;7.636;2022-08-26T07:16:34;2.20;;;2.00;;
21030;SDS011;61072;47.808;7.636;2022-08-26T07:19:01;4.05;;;2.28;;
21030;SDS011;61072;47.808;7.636;2022-08-26T07:21:36;4.00;;;2.20;;
21030;SDS011;61072;47.808;7.636;2022-08-26T07:24:05;3.53;;;2.13;;
21030;SDS011;61072;47.808;7.636;2022-08-26T07:26:33;6.35;;;2.28;;
21030;SDS011;61072;47.808;7.636;2022-08-26T07:29:00;5.43;;;2.40;;
21030;SDS011;61072;47.808;7.636;2022-08-26T07:31:28;3.85;;;2.30;;
21030;SDS011;61072;47.808;7.636;2022-08-26T07:34:04;3.90;;;2.05;;
21030;SDS011;61072;47.808;7.636;2022-08-26T07:36:32;2.97;;;1.92;;
21030;SDS011;61072;47.808;7.636;2022-08-26T07:38:59;3.47;;;2.10;;
21030;SDS011;61072;47.808;7.636;2022-08-26T07:41:27;5.85;;;1.90;;
21030;SDS011;61072;47.808;7.636;2022-08-26T07:43:55;2.88;;;2.13;;
21030;SDS011;61072;47.808;7.636;2022-08-26T07:46:22;3.22;;;2.35;;
21030;SDS011;61072;47.808;7.636;2022-08-26T07:48:55;5.93;;;1.98;;
21030;SDS011;61072;47.808;7.636;2022-08-26T07:51:22;5.75;;;2.05;;
21030;SDS011;61072;47.808;7.636;2022-08-26T07:53:50;8.32;;;2.25;;
21030;SDS011;61072;47.808;7.636;2022-08-26T07:56:18;8.35;;;2.20;;
21030;SDS011;61072;47.808;7.636;2022-08-26T07:58:45;4.43;;;2.13;;
21030;SDS011;61072;47.808;7.636;2022-08-26T08:01:17;5.35;;;2.10;;
21030;SDS011;61072;47.808;7.636;2022-08-26T08:03:45;4.70;;;2.33;;
21030;SDS011;61072;47.808;7.636;2022-08-26T08:06:16;3.17;;;1.90;;
21030;SDS011;61072;47.808;7.636;2022-08-26T08:08:44;2.65;;;2.05;;
21030;SDS011;61072;47.808;7.636;2022-08-26T08:11:12;5.65;;;2.20;;
21030;SDS011;61072;47.808;7.636;2022-08-26T08:13:39;5.95;;;2.15;;
21030;SDS011;61072;47.808;7.636;2022-08-26T08:16:06;5.80;;;2.40;;
21030;SDS011;61072;47.808;7.636;2022-08-26T08:18:38;4.72;;;2.50;;
21030;SDS011;61072;47.808;7.636;2022-08-26T08:21:05;4.95;;;2.40;;
21030;SDS011;61072;47.808;7.636;2022-08-26T08:23:49;3.05;;;1.90;;
21030;SDS011;61072;47.808;7.636;2022-08-26T08:26:20;3.55;;;1.95;;
21030;SDS011;61072;47.808;7.636;2022-08-26T08:28:48;6.00;;;2.00;;
21030;SDS011;61072;47.808;7.636;2022-08-26T08:31:22;4.15;;;2.10;;
21030;SDS011;61072;47.808;7.636;2022-08-26T08:34:11;5.00;;;2.70;;
21030;SDS011;61072;47.808;7.636;2022-08-26T08:36:38;5.05;;;2.13;;
21030;SDS011;61072;47.808;7.636;2022-08-26T08:39:06;4.88;;;2.50;;
21030;SDS011;61072;47.808;7.636;2022-08-26T08:44:21;4.07;;;2.20;;
21030;SDS011;61072;47.808;7.636;2022-08-26T08:46:54;3.20;;;1.92;;
21030;SDS011;61072;47.808;7.636;2022-08-26T08:49:26;5.10;;;2.55;;
21030;SDS011;61072;47.808;7.636;2022-08-26T08:54:25;2.80;;;1.92;;
21030;SDS011;61072;47.808;7.636;2022-08-26T08:56:54;2.63;;;1.77;;
21030;SDS011;61072;47.808;7.636;2022-08-26T08:59:33;11.32;;;2.35;;
21030;SDS011;61072;47.808;7.636;2022-08-26T09:02:17;6.45;;;2.30;;
21030;SDS011;61072;47.808;7.636;2022-08-26T09:05:19;6.20;;;2.08;;
21030;SDS011;61072;47.808;7.636;2022-08-26T09:12:54;4.63;;;2.00;;
21030;SDS011;61072;47.808;7.636;2022-08-26T09:15:23;3.47;;;2.25;;
21030;SDS011;61072;47.808;7.636;2022-08-26T09:20:54;8.60;;;2.28;;
21030;SDS011;61072;47.808;7.636;2022-08-26T09:23:27;4.03;;;2.08;;
21030;SDS011;61072;47.808;7.636;2022-08-26T09:25:57;4.85;;;2.30;;
21030;SDS011;61072;47.808;7.636;2022-08-26T09:28:29;3.72;;;2.38;;
21030;SDS011;61072;47.808;7.636;2022-08-26T09:30:58;4.72;;;2.20;;
21030;SDS011;61072;47.808;7.636;2022-08-26T09:33:31;6.80;;;2.38;;
21030;SDS011;61072;47.808;7.636;2022-08-26T09:39:23;4.95;;;2.00;;
21030;SDS011;61072;47.808;7.636;2022-08-26T09:44:53;5.78;;;2.72;;
21030;SDS011;61072;47.808;7.636;2022-08-26T09:47:28;6.68;;;2.53;;
21030;SDS011;61072;47.808;7.636;2022-08-26T09:50:06;4.80;;;2.28;;
21030;SDS011;61072;47.808;7.636;2022-08-26T09:52:37;5.90;;;2.35;;
21030;SDS011;61072;47.808;7.636;2022-08-26T09:57:35;5.75;;;2.25;;
21030;SDS011;61072;47.808;7.636;2022-08-26T10:02:52;4.60;;;2.00;;
21030;SDS011;61072;47.808;7.636;2022-08-26T10:05:27;3.67;;;2.10;;
21030;SDS011;61072;47.808;7.636;2022-08-26T10:08:19;8.73;;;2.65;;
21030;SDS011;61072;47.808;7.636;2022-08-26T10:10:48;8.50;;;2.38;;
21030;SDS011;61072;47.808;7.636;2022-08-26T10:13:31;7.97;;;2.28;;
21030;SDS011;61072;47.808;7.636;2022-08-26T10:16:04;6.25;;;2.60;;
21030;SDS011;61072;47.808;7.636;2022-08-26T10:21:34;5.57;;;2.67;;
21030;SDS011;61072;47.808;7.636;2022-08-26T10:24:22;4.93;;;2.22;;
21030;SDS011;61072;47.808;7.636;2022-08-26T10:29:37;8.20;;;2.30;;
21030;SDS011;61072;47.808;7.636;2022-08-26T10:32:20;6.53;;;2.38;;
21030;SDS011;61072;47.808;7.636;2022-08-26T10:34:56;6.07;;;3.00;;
21030;SDS011;61072;47.808;7.636;2022-08-26T10:37:24;7.68;;;2.78;;
21030;SDS011;61072;47.808;7.636;2022-08-26T10:40:05;10.90;;;2.97;;
21030;SDS011;61072;47.808;7.636;2022-08-26T10:45:36;5.45;;;2.65;;
21030;SDS011;61072;47.808;7.636;2022-08-26T10:48:09;4.10;;;3.03;;
21030;SDS011;61072;47.808;7.636;2022-08-26T10:50:44;5.30;;;2.90;;
21030;SDS011;61072;47.808;7.636;2022-08-26T10:53:15;7.45;;;2.85;;
21030;SDS011;61072;47.808;7.636;2022-08-26T10:56:46;6.72;;;2.80;;
21030;SDS011;61072;47.808;7.636;2022-08-26T10:58:54;7.07;;;2.75;;
21030;SDS011;61072;47.808;7.636;2022-08-26T11:10:10;3.90;;;2.50;;
21030;SDS011;61072;47.808;7.636;2022-08-26T11:12:46;3.97;;;2.53;;
21030;SDS011;61072;47.808;7.636;2022-08-26T11:26:11;5.57;;;3.00;;
21030;SDS011;61072;47.808;7.636;2022-08-26T11:29:00;4.75;;;2.85;;
21030;SDS011;61072;47.808;7.636;2022-08-26T11:34:00;4.38;;;3.03;;
21030;SDS011;61072;47.808;7.636;2022-08-26T11:41:54;4.82;;;3.13;;
21030;SDS011;61072;47.808;7.636;2022-08-26T11:44:26;9.68;;;3.38;;
21030;SDS011;61072;47.808;7.636;2022-08-26T11:47:00;6.72;;;3.65;;
21030;SDS011;61072;47.808;7.636;2022-08-26T11:49:28;3.25;;;2.95;;
21030;SDS011;61072;47.808;7.636;2022-08-26T11:52:08;8.13;;;3.38;;
21030;SDS011;61072;47.808;7.636;2022-08-26T11:55:08;4.90;;;3.38;;
21030;SDS011;61072;47.808;7.636;2022-08-26T11:57:41;5.38;;;3.38;;
21030;SDS011;61072;47.808;7.636;2022-08-26T12:00:19;7.07;;;3.40;;
21030;SDS011;61072;47.808;7.636;2022-08-26T12:02:49;6.88;;;3.78;;
21030;SDS011;61072;47.808;7.636;2022-08-26T12:05:21;5.67;;;3.70;;
21030;SDS011;61072;47.808;7.636;2022-08-26T12:08:08;11.25;;;3.75;;
21030;SDS011;61072;47.808;7.636;2022-08-26T12:10:37;4.57;;;3.45;;
21030;SDS011;61072;47.808;7.636;2022-08-26T12:13:05;7.68;;;3.20;;
21030;SDS011;61072;47.808;7.636;2022-08-26T12:15:33;4.07;;;3.50;;
21030;SDS011;61072;47.808;7.636;2022-08-26T12:18:16;7.22;;;3.97;;
21030;SDS011;61072;47.808;7.636;2022-08-26T12:20:55;6.28;;;3.90;;
21030;SDS011;61072;47.808;7.636;2022-08-26T12:28:55;5.13;;;3.55;;
21030;SDS011;61072;47.808;7.636;2022-08-26T12:31:42;6.10;;;3.63;;
21030;SDS011;61072;47.808;7.636;2022-08-26T12:34:10;8.13;;;3.63;;
21030;SDS011;61072;47.808;7.636;2022-08-26T12:39:24;7.30;;;4.15;;
21030;SDS011;61072;47.808;7.636;2022-08-26T12:41:52;6.25;;;3.30;;
21030;SDS011;61072;47.808;7.636;2022-08-26T12:44:30;7.00;;;3.30;;
21030;SDS011;61072;47.808;7.636;2022-08-26T12:47:02;6.65;;;3.15;;
21030;SDS011;61072;47.808;7.636;2022-08-26T12:49:36;8.05;;;3.55;;
21030;SDS011;61072;47.808;7.636;2022-08-26T12:52:05;4.28;;;3.40;;
21030;SDS011;61072;47.808;7.636;2022-08-26T12:54:34;7.28;;;3.30;;
21030;SDS011;61072;47.808;7.636;2022-08-26T12:57:27;6.90;;;3.60;;
21030;SDS011;61072;47.808;7.636;2022-08-26T13:02:53;9.40;;;4.10;;
21030;SDS011;61072;47.808;7.636;2022-08-26T13:05:24;4.38;;;3.67;;
21030;SDS011;61072;47.808;7.636;2022-08-26T13:08:09;4.50;;;3.53;;
21030;SDS011;61072;47.808;7.636;2022-08-26T13:10:39;7.53;;;4.10;;
21030;SDS011;61072;47.808;7.636;2022-08-26T13:13:09;6.10;;;3.67;;
21030;SDS011;61072;47.808;7.636;2022-08-26T13:15:36;6.47;;;3.85;;
21030;SDS011;61072;47.808;7.636;2022-08-26T13:18:03;6.68;;;3.22;;
21030;SDS011;61072;47.808;7.636;2022-08-26T13:20:30;7.40;;;3.42;;
21030;SDS011;61072;47.808;7.636;2022-08-26T13:22:57;5.03;;;3.65;;
21030;SDS011;61072;47.808;7.636;2022-08-26T13:25:24;6.03;;;3.45;;
21030;SDS011;61072;47.808;7.636;2022-08-26T13:27:51;9.18;;;3.33;;
21030;SDS011;61072;47.808;7.636;2022-08-26T13:30:19;4.07;;;3.28;;
21030;SDS011;61072;47.808;7.636;2022-08-26T13:32:46;8.00;;;3.42;;
21030;SDS011;61072;47.808;7.636;2022-08-26T13:35:14;3.58;;;3.28;;
21030;SDS011;61072;47.808;7.636;2022-08-26T13:37:40;4.80;;;3.70;;
21030;SDS011;61072;47.808;7.636;2022-08-26T13:40:07;4.78;;;3.25;;
21030;SDS011;61072;47.808;7.636;2022-08-26T13:42:35;5.35;;;3.72;;
21030;SDS011;61072;47.808;7.636;2022-08-26T13:45:14;5.80;;;4.10;;
21030;SDS011;61072;47.808;7.636;2022-08-26T13:47:41;5.30;;;4.15;;
21030;SDS011;61072;47.808;7.636;2022-08-26T13:50:09;7.32;;;4.07;;
21030;SDS011;61072;47.808;7.636;2022-08-26T13:52:36;6.90;;;4.57;;
21030;SDS011;61072;47.808;7.636;2022-08-26T13:55:03;8.82;;;4.40;;
21030;SDS011;61072;47.808;7.636;2022-08-26T13:57:30;5.85;;;4.63;;
21030;SDS011;61072;47.808;7.636;2022-08-26T13:59:57;5.43;;;4.30;;
21030;SDS011;61072;47.808;7.636;2022-08-26T14:02:26;6.07;;;4.38;;
21030;SDS011;61072;47.808;7.636;2022-08-26T14:04:53;6.18;;;4.07;;
21030;SDS011;61072;47.808;7.636;2022-08-26T14:07:20;8.93;;;4.10;;
21030;SDS011;61072;47.808;7.636;2022-08-26T14:09:48;9.27;;;4.40;;
21030;SDS011;61072;47.808;7.636;2022-08-26T14:12:14;8.80;;;4.53;;
21030;SDS011;61072;47.808;7.636;2022-08-26T14:14:41;6.80;;;4.35;;
21030;SDS011;61072;47.808;7.636;2022-08-26T14:17:08;6.15;;;4.72;;
21030;SDS011;61072;47.808;7.636;2022-08-26T14:19:35;6.38;;;4.10;;
21030;SDS011;61072;47.808;7.636;2022-08-26T14:22:03;6.22;;;4.13;;
21030;SDS011;61072;47.808;7.636;2022-08-26T14:24:29;6.22;;;3.65;;
21030;SDS011;61072;47.808;7.636;2022-08-26T14:26:56;6.55;;;4.07;;
21030;SDS011;61072;47.808;7.636;2022-08-26T14:29:23;7.30;;;4.55;;
21030;SDS011;61072;47.808;7.636;2022-08-26T14:31:50;9.50;;;4.25;;
21030;SDS011;61072;47.808;7.636;2022-08-26T14:34:17;4.45;;;4.05;;
21030;SDS011;61072;47.808;7.636;2022-08-26T14:36:44;13.82;;;4.75;;
21030;SDS011;61072;47.808;7.636;2022-08-26T14:39:11;8.30;;;4.30;;
21030;SDS011;61072;47.808;7.636;2022-08-26T14:41:47;9.43;;;3.95;;
21030;SDS011;61072;47.808;7.636;2022-08-26T14:44:19;4.75;;;4.18;;
21030;SDS011;61072;47.808;7.636;2022-08-26T14:46:50;7.22;;;4.15;;
21030;SDS011;61072;47.808;7.636;2022-08-26T14:49:19;8.77;;;4.40;;
21030;SDS011;61072;47.808;7.636;2022-08-26T14:51:47;7.72;;;4.45;;
21030;SDS011;61072;47.808;7.636;2022-08-26T14:54:14;9.27;;;4.57;;
21030;SDS011;61072;47.808;7.636;2022-08-26T14:56:49;8.98;;;5.10;;
21030;SDS011;61072;47.808;7.636;2022-08-26T14:59:20;5.05;;;4.15;;
21030;SDS011;61072;47.808;7.636;2022-08-26T15:01:50;5.75;;;4.57;;
21030;SDS011;61072;47.808;7.636;2022-08-26T15:04:18;4.43;;;4.03;;
21030;SDS011;61072;47.808;7.636;2022-08-26T15:06:46;5.18;;;4.50;;
21030;SDS011;61072;47.808;7.636;2022-08-26T15:09:13;7.47;;;5.13;;
21030;SDS011;61072;47.808;7.636;2022-08-26T15:11:40;5.22;;;4.03;;
21030;SDS011;61072;47.808;7.636;2022-08-26T15:14:08;5.18;;;4.43;;
21030;SDS011;61072;47.808;7.636;2022-08-26T15:16:45;7.18;;;4.90;;
21030;SDS011;61072;47.808;7.636;2022-08-26T15:19:16;5.70;;;4.28;;
21030;SDS011;61072;47.808;7.636;2022-08-26T15:21:43;7.90;;;4.13;;
21030;SDS011;61072;47.808;7.636;2022-08-26T15:24:12;5.63;;;4.75;;
21030;SDS011;61072;47.808;7.636;2022-08-26T15:26:40;6.30;;;4.35;;
21030;SDS011;61072;47.808;7.636;2022-08-26T15:29:07;9.43;;;5.53;;
21030;SDS011;61072;47.808;7.636;2022-08-26T15:31:34;7.18;;;5.13;;
21030;SDS011;61072;47.808;7.636;2022-08-26T15:34:02;8.25;;;4.60;;
21030;SDS011;61072;47.808;7.636;2022-08-26T15:36:32;6.50;;;4.22;;
21030;SDS011;61072;47.808;7.636;2022-08-26T15:39:00;5.88;;;4.43;;
21030;SDS011;61072;47.808;7.636;2022-08-26T15:41:27;8.20;;;4.47;;
21030;SDS011;61072;47.808;7.636;2022-08-26T15:43:54;8.05;;;4.50;;
21030;SDS011;61072;47.808;7.636;2022-08-26T15:46:22;13.13;;;5.18;;
21030;SDS011;61072;47.808;7.636;2022-08-26T15:48:49;7.20;;;4.75;;
21030;SDS011;61072;47.808;7.636;2022-08-26T15:51:20;8.40;;;4.50;;
21030;SDS011;61072;47.808;7.636;2022-08-26T15:53:52;5.60;;;5.00;;
21030;SDS011;61072;47.808;7.636;2022-08-26T15:56:24;6.82;;;4.32;;
21030;SDS011;61072;47.808;7.636;2022-08-26T15:58:54;9.82;;;4.85;;
21030;SDS011;61072;47.808;7.636;2022-08-26T16:01:22;10.30;;;4.80;;
21030;SDS011;61072;47.808;7.636;2022-08-26T16:03:53;8.35;;;5.05;;
21030;SDS011;61072;47.808;7.636;2022-08-26T16:06:21;7.72;;;5.30;;
21030;SDS011;61072;47.808;7.636;2022-08-26T16:08:50;13.32;;;4.78;;
21030;SDS011;61072;47.808;7.636;2022-08-26T16:11:16;8.13;;;5.03;;
21030;SDS011;61072;47.808;7.636;2022-08-26T16:13:46;8.40;;;5.78;;
21030;SDS011;61072;47.808;7.636;2022-08-26T16:16:14;11.18;;;5.40;;
21030;SDS011;61072;47.808;7.636;2022-08-26T16:18:41;13.38;;;6.95;;
21030;SDS011;61072;47.808;7.636;2022-08-26T16:21:19;16.75;;;7.68;;
21030;SDS011;61072;47.808;7.636;2022-08-26T16:23:47;10.82;;;6.90;;
21030;SDS011;61072;47.808;7.636;2022-08-26T16:26:15;20.73;;;9.45;;
21030;SDS011;61072;47.808;7.636;2022-08-26T16:28:45;12.95;;;8.75;;
21030;SDS011;61072;47.808;7.636;2022-08-26T16:31:13;15.07;;;9.52;;
21030;SDS011;61072;47.808;7.636;2022-08-26T16:33:40;16.63;;;8.63;;